createdAt,value
2018-05-07T00:01:03.700Z,55.66
2018-05-07T00:03:32.348Z,55.18
2018-05-07T00:06:00.793Z,55.93
2018-05-07T00:08:29.198Z,56.11
2018-05-07T00:10:57.491Z,56.45
2018-05-07T00:13:26.499Z,56.59
2018-05-07T00:15:55.396Z,58.26
2018-05-07T00:18:23.775Z,59.41
2018-05-07T00:20:52.153Z,58.90
2018-05-07T00:23:20.448Z,59.28
2018-05-07T00:25:49.063Z,59.97
2018-05-07T00:28:18.605Z,59.95
2018-05-07T00:30:46.932Z,59.56
2018-05-07T00:33:16.581Z,59.84
2018-05-07T00:35:45.480Z,60.41
2018-05-07T00:38:13.764Z,60.63
2018-05-07T00:40:42.775Z,60.74
2018-05-07T00:43:11.065Z,60.85
2018-05-07T00:45:39.347Z,61.60
2018-05-07T00:48:07.673Z,61.25
2018-05-07T00:50:37.588Z,60.10
2018-05-07T00:53:06.810Z,59.72
2018-05-07T00:55:35.685Z,59.99
2018-05-07T00:58:03.968Z,58.38
2018-05-07T01:00:32.251Z,61.29
2018-05-07T01:03:01.125Z,59.72
2018-05-07T01:05:29.407Z,59.17
2018-05-07T01:07:57.759Z,59.90
2018-05-07T01:10:26.235Z,60.23
2018-05-07T01:12:54.698Z,61.50
2018-05-07T01:15:23.069Z,61.25
2018-05-07T01:17:51.352Z,61.34
2018-05-07T01:20:19.638Z,61.82
2018-05-07T01:22:47.938Z,61.77
2018-05-07T01:25:16.219Z,61.57
2018-05-07T01:27:45.015Z,62.13
2018-05-07T01:30:13.303Z,60.94
2018-05-07T01:32:41.626Z,62.00
2018-05-07T01:35:09.917Z,61.21
2018-05-07T01:37:38.211Z,61.53
2018-05-07T01:40:06.554Z,62.45
2018-05-07T01:42:34.834Z,62.56
2018-05-07T01:45:03.109Z,62.20
2018-05-07T01:47:31.419Z,62.65
2018-05-07T01:50:00.074Z,62.19
2018-05-07T01:52:28.354Z,62.23
2018-05-07T01:54:57.107Z,61.99
2018-05-07T01:57:25.953Z,64.98
2018-05-07T01:59:54.308Z,62.22
2018-05-07T02:02:23.285Z,62.52
2018-05-07T02:04:52.377Z,61.35
2018-05-07T02:07:21.518Z,60.57
2018-05-07T02:09:50.612Z,59.00
2018-05-07T02:12:20.529Z,57.61
2018-05-07T02:14:49.602Z,59.48
2018-05-07T02:17:19.520Z,58.02
2018-05-07T02:19:48.589Z,59.40
2018-05-07T02:22:16.991Z,61.04
2018-05-07T02:24:46.005Z,60.33
2018-05-07T02:27:15.149Z,61.96
2018-05-07T02:29:44.366Z,63.16
2018-05-07T02:32:12.647Z,63.62
2018-05-07T02:34:41.699Z,63.12
2018-05-07T02:37:10.309Z,63.89
2018-05-07T02:39:39.715Z,62.81
2018-05-07T02:42:09.627Z,64.29
2018-05-07T02:44:38.115Z,64.21
2018-05-07T02:47:06.399Z,63.67
2018-05-07T02:49:34.846Z,64.74
2018-05-07T02:52:03.179Z,63.92
2018-05-07T02:54:31.910Z,63.50
2018-05-07T02:57:00.976Z,64.01
2018-05-07T02:59:29.375Z,64.38
2018-05-07T03:01:58.290Z,64.41
2018-05-07T03:04:26.644Z,64.47
2018-05-07T03:06:55.110Z,64.73
2018-05-07T03:09:23.386Z,63.63
2018-05-07T03:11:52.251Z,61.57
2018-05-07T03:14:20.551Z,62.23
2018-05-07T03:16:48.914Z,59.17
2018-05-07T03:19:17.218Z,59.16
2018-05-07T03:21:46.543Z,61.14
2018-05-07T03:24:14.912Z,60.68
2018-05-07T03:26:43.199Z,59.72
2018-05-07T03:29:11.474Z,59.19
2018-05-07T03:31:40.322Z,59.13
2018-05-07T03:34:09.085Z,58.52
2018-05-07T03:36:38.128Z,58.17
2018-05-07T03:39:06.446Z,56.57
2018-05-07T03:41:34.731Z,57.27
2018-05-07T03:44:03.806Z,55.92
2018-05-07T03:46:32.366Z,56.67
2018-05-07T03:49:01.075Z,58.18
2018-05-07T03:51:29.738Z,59.94
2018-05-07T03:53:58.018Z,61.08
2018-05-07T03:56:26.302Z,62.01
2018-05-07T03:58:54.638Z,62.33
2018-05-07T04:01:23.315Z,63.43
2018-05-07T04:03:51.910Z,63.69
2018-05-07T04:06:20.215Z,64.17
2018-05-07T04:08:48.800Z,64.57
2018-05-07T04:11:17.656Z,64.62
2018-05-07T04:13:45.990Z,65.10
2018-05-07T04:16:31.847Z,66.07
2018-05-07T04:19:17.650Z,66.52
2018-05-07T04:22:03.415Z,66.47
2018-05-07T04:24:31.889Z,66.95
2018-05-07T04:27:00.670Z,66.25
2018-05-07T04:29:28.968Z,66.44
2018-05-07T04:31:57.273Z,65.70
2018-05-07T04:34:25.578Z,65.61
2018-05-07T04:36:54.034Z,64.87
2018-05-07T04:39:22.354Z,63.24
2018-05-07T04:41:50.630Z,62.54
2018-05-07T04:44:18.926Z,59.99
2018-05-07T04:46:47.255Z,56.51
2018-05-07T04:49:15.927Z,52.41
2018-05-07T04:51:45.205Z,48.94
2018-05-07T04:54:13.626Z,45.58
2018-05-07T04:56:42.567Z,46.14
2018-05-07T04:59:11.714Z,43.73
2018-05-07T05:01:40.331Z,42.10
2018-05-07T05:04:08.978Z,42.11
2018-05-07T05:06:38.102Z,39.46
2018-05-07T05:09:07.228Z,38.21
2018-05-07T05:11:36.438Z,37.92
2018-05-07T05:14:05.506Z,35.30
2018-05-07T05:16:34.630Z,34.05
2018-05-07T05:19:03.719Z,33.20
2018-05-07T05:21:32.695Z,36.19
2018-05-07T05:24:01.001Z,34.34
2018-05-07T05:26:31.227Z,32.81
2018-05-07T05:28:59.733Z,33.35
2018-05-07T05:31:28.746Z,36.02
2018-05-07T05:33:57.074Z,33.33
2018-05-07T05:36:25.735Z,33.10
2018-05-07T05:38:54.060Z,32.31
2018-05-07T05:41:22.739Z,30.86
2018-05-07T05:43:52.455Z,30.58
2018-05-07T05:46:20.779Z,31.27
2018-05-07T05:48:49.097Z,31.70
2018-05-07T05:51:17.936Z,30.10
2018-05-07T05:53:46.312Z,34.80
2018-05-07T05:56:14.945Z,32.67
2018-05-07T05:58:43.174Z,31.69
2018-05-07T06:01:11.623Z,32.12
2018-05-07T06:03:40.592Z,32.23
2018-05-07T06:06:08.862Z,32.86
2018-05-07T06:08:37.614Z,33.54
2018-05-07T06:11:05.967Z,34.29
2018-05-07T06:13:34.251Z,34.71
2018-05-07T06:16:02.731Z,35.30
2018-05-07T06:18:31.026Z,35.05
2018-05-07T06:20:59.305Z,32.19
2018-05-07T06:23:27.634Z,32.70
2018-05-07T06:25:55.910Z,31.12
2018-05-07T06:28:24.710Z,31.83
2018-05-07T06:30:53.075Z,34.22
2018-05-07T06:33:21.830Z,32.50
2018-05-07T06:35:50.116Z,32.15
2018-05-07T06:38:18.470Z,32.27
2018-05-07T06:40:46.864Z,34.99
2018-05-07T06:43:15.594Z,33.27
2018-05-07T06:45:44.082Z,32.58
2018-05-07T06:48:13.455Z,29.67
2018-05-07T06:50:42.423Z,31.76
2018-05-07T06:53:11.755Z,31.60
2018-05-07T06:55:40.034Z,30.03
2018-05-07T06:58:08.311Z,28.89
2018-05-07T07:00:36.651Z,30.54
2018-05-07T07:03:04.938Z,33.30
2018-05-07T07:05:33.219Z,31.49
2018-05-07T07:08:02.303Z,30.77
2018-05-07T07:10:30.535Z,32.74
2018-05-07T07:12:58.816Z,31.85
2018-05-07T07:15:27.626Z,29.71
2018-05-07T07:17:56.381Z,28.97
2018-05-07T07:20:25.883Z,28.42
2018-05-07T07:22:54.636Z,28.62
2018-05-07T07:25:22.913Z,26.98
2018-05-07T07:27:51.197Z,28.62
2018-05-07T07:30:19.542Z,26.28
2018-05-07T07:32:48.588Z,27.55
2018-05-07T07:35:17.146Z,27.59
2018-05-07T07:37:45.635Z,26.57
2018-05-07T07:40:13.906Z,28.79
2018-05-07T07:42:42.206Z,27.01
2018-05-07T07:45:10.523Z,25.18
2018-05-07T07:47:38.871Z,23.19
2018-05-07T07:50:07.453Z,25.09
2018-05-07T07:52:35.938Z,26.71
2018-05-07T07:55:04.223Z,27.47
2018-05-07T07:57:32.683Z,26.13
2018-05-07T08:00:00.998Z,25.83
2018-05-07T08:02:29.579Z,26.42
2018-05-07T08:04:57.859Z,24.45
2018-05-07T08:07:28.126Z,24.19
2018-05-07T08:09:56.420Z,23.88
2018-05-07T08:12:25.480Z,23.13
2018-05-07T08:14:54.279Z,26.31
2018-05-07T08:17:23.905Z,25.47
2018-05-07T08:19:52.607Z,25.96
2018-05-07T08:22:20.999Z,24.39
2018-05-07T08:24:49.479Z,24.57
2018-05-07T08:27:17.771Z,22.86
2018-05-07T08:29:46.067Z,20.62
2018-05-07T08:32:14.387Z,22.33
2018-05-07T08:34:42.662Z,25.03
2018-05-07T08:37:11.062Z,21.78
2018-05-07T08:39:39.943Z,20.27
2018-05-07T08:42:08.225Z,19.05
2018-05-07T08:44:36.730Z,20.28
2018-05-07T08:47:05.511Z,23.78
2018-05-07T08:49:33.798Z,23.87
2018-05-07T08:52:02.077Z,21.64
2018-05-07T08:54:30.577Z,20.84
2018-05-07T08:56:58.871Z,21.72
2018-05-07T08:59:27.150Z,21.53
2018-05-07T09:01:55.721Z,20.02
2018-05-07T09:04:24.017Z,17.76
2018-05-07T09:06:52.625Z,19.54
2018-05-07T09:09:21.211Z,23.20
2018-05-07T09:11:49.486Z,20.25
2018-05-07T09:14:17.763Z,20.00
2018-05-07T09:16:46.090Z,19.52
2018-05-07T09:19:15.133Z,20.46
2018-05-07T09:21:43.806Z,18.61
2018-05-07T09:24:12.191Z,16.75
2018-05-07T09:26:40.471Z,16.61
2018-05-07T09:29:09.570Z,18.58
2018-05-07T09:31:37.921Z,19.58
2018-05-07T09:34:06.255Z,19.09
2018-05-07T09:36:34.835Z,20.75
2018-05-07T09:39:03.154Z,18.32
2018-05-07T09:41:31.861Z,17.97
2018-05-07T09:44:01.070Z,18.15
2018-05-07T09:46:29.382Z,16.35
2018-05-07T09:48:57.692Z,16.01
2018-05-07T09:51:25.951Z,13.76
2018-05-07T09:53:54.271Z,15.17
2018-05-07T09:56:22.311Z,14.25
2018-05-07T09:58:58.320Z,15.60
2018-05-07T10:01:26.930Z,17.19
2018-05-07T10:03:55.210Z,15.07
2018-05-07T10:06:23.534Z,14.00
2018-05-07T10:08:51.819Z,14.24
2018-05-07T10:11:20.367Z,15.89
2018-05-07T10:13:48.714Z,16.28
2018-05-07T10:16:17.090Z,14.17
2018-05-07T10:18:45.375Z,15.12
2018-05-07T10:21:13.695Z,15.38
2018-05-07T10:23:42.398Z,14.69
2018-05-07T10:26:10.675Z,16.41
2018-05-07T10:28:39.767Z,15.16
2018-05-07T10:31:08.084Z,15.51
2018-05-07T10:33:36.370Z,17.40
2018-05-07T10:36:04.767Z,15.05
2018-05-07T10:38:33.744Z,14.62
2018-05-07T10:41:02.023Z,13.42
2018-05-07T10:43:30.367Z,13.22
2018-05-07T10:45:58.871Z,13.17
2018-05-07T10:48:27.150Z,12.44
2018-05-07T10:50:55.936Z,13.67
2018-05-07T10:53:24.283Z,17.61
2018-05-07T10:55:52.566Z,17.11
2018-05-07T10:58:20.886Z,16.00
2018-05-07T11:00:49.161Z,14.92
2018-05-07T11:03:17.442Z,15.49
2018-05-07T11:05:45.751Z,14.05
2018-05-07T11:08:14.570Z,15.96
2018-05-07T11:10:43.754Z,16.23
2018-05-07T11:13:12.119Z,14.55
2018-05-07T11:15:40.695Z,12.99
2018-05-07T11:18:08.982Z,13.82
2018-05-07T11:20:37.322Z,15.68
2018-05-07T11:23:06.883Z,16.12
2018-05-07T11:25:35.863Z,16.90
2018-05-07T11:28:04.467Z,14.08
2018-05-07T11:30:32.585Z,12.88
2018-05-07T11:33:00.862Z,13.46
2018-05-07T11:35:29.333Z,15.56
2018-05-07T11:37:58.393Z,14.96
2018-05-07T11:40:26.671Z,14.51
2018-05-07T11:42:55.681Z,15.01
2018-05-07T11:45:23.998Z,13.88
2018-05-07T11:47:52.274Z,13.72
2018-05-07T11:50:20.950Z,11.96
2018-05-07T11:52:49.502Z,10.05
2018-05-07T11:55:18.321Z,10.35
2018-05-07T11:57:46.626Z,12.75
2018-05-07T12:00:14.946Z,13.95
2018-05-07T12:02:43.235Z,13.67
2018-05-07T12:05:11.523Z,14.98
2018-05-07T12:07:39.857Z,13.23
2018-05-07T12:10:08.137Z,14.85
2018-05-07T12:12:36.878Z,14.26
2018-05-07T12:15:06.013Z,14.60
2018-05-07T12:17:34.342Z,13.99
2018-05-07T12:20:02.698Z,14.35
2018-05-07T12:22:31.010Z,15.83
2018-05-07T12:24:59.355Z,14.74
2018-05-07T12:27:27.638Z,14.55
2018-05-07T12:29:56.497Z,14.69
2018-05-07T12:32:25.599Z,13.77
2018-05-07T12:34:53.879Z,14.34
2018-05-07T12:37:22.206Z,15.29
2018-05-07T12:39:50.479Z,16.25
2018-05-07T12:42:18.750Z,15.29
2018-05-07T12:44:47.066Z,14.86
2018-05-07T12:47:15.531Z,16.22
2018-05-07T12:49:43.806Z,14.47
2018-05-07T12:52:12.119Z,15.64
2018-05-07T12:54:40.666Z,12.82
2018-05-07T12:57:08.952Z,14.61
2018-05-07T12:59:37.710Z,13.57
2018-05-07T13:02:05.995Z,14.53
2018-05-07T13:04:34.284Z,13.80
2018-05-07T13:07:03.113Z,13.98
2018-05-07T13:09:31.390Z,13.28
2018-05-07T13:11:59.670Z,12.17
2018-05-07T13:14:28.591Z,12.87
2018-05-07T13:16:56.879Z,13.33
2018-05-07T13:19:25.302Z,13.87
2018-05-07T13:21:54.406Z,16.23
2018-05-07T13:24:22.684Z,15.03
2018-05-07T13:26:51.336Z,14.44
2018-05-07T13:29:20.058Z,15.41
2018-05-07T13:31:48.816Z,15.98
2018-05-07T13:34:18.098Z,15.51
2018-05-07T13:36:46.423Z,15.33
2018-05-07T13:39:14.718Z,15.31
2018-05-07T13:41:43.104Z,15.20
2018-05-07T13:44:11.415Z,14.82
2018-05-07T13:46:40.293Z,14.69
2018-05-07T13:49:09.370Z,14.08
2018-05-07T13:51:38.467Z,14.42
2018-05-07T13:54:06.923Z,14.62
2018-05-07T13:56:35.247Z,14.24
2018-05-07T13:59:03.523Z,14.48
2018-05-07T14:01:31.798Z,14.28
2018-05-07T14:04:00.670Z,13.75
2018-05-07T14:06:29.803Z,13.78
2018-05-07T14:08:59.883Z,13.98
2018-05-07T14:11:28.778Z,13.68
2018-05-07T14:13:56.469Z,13.78
2018-05-07T14:16:24.793Z,14.71
2018-05-07T14:18:53.078Z,13.68
2018-05-07T14:21:21.354Z,13.61
2018-05-07T14:23:50.220Z,14.46
2018-05-07T14:26:18.589Z,14.83
2018-05-07T14:28:46.888Z,13.89
2018-05-07T14:31:15.202Z,13.01
2018-05-07T14:33:43.487Z,14.08
2018-05-07T14:36:11.767Z,15.26
2018-05-07T14:38:40.121Z,14.83
2018-05-07T14:41:08.380Z,13.50
2018-05-07T14:43:36.688Z,15.15
2018-05-07T14:46:06.478Z,15.44
2018-05-07T14:48:35.107Z,15.27
2018-05-07T14:51:03.390Z,15.23
2018-05-07T14:53:31.715Z,15.68
2018-05-07T14:55:59.992Z,14.72
2018-05-07T14:58:29.786Z,13.84
2018-05-07T15:00:59.200Z,13.88
2018-05-07T15:03:27.906Z,13.91
2018-05-07T15:05:56.190Z,13.90
2018-05-07T15:08:24.491Z,14.36
2018-05-07T15:10:52.775Z,14.71
2018-05-07T15:13:21.166Z,15.72
2018-05-07T15:15:49.378Z,15.96
2018-05-07T15:18:17.654Z,16.17
2018-05-07T15:20:46.855Z,17.80
2018-05-07T15:23:15.443Z,17.47
2018-05-07T15:25:43.680Z,18.01
2018-05-07T15:28:12.626Z,16.86
2018-05-07T15:30:41.493Z,16.04
2018-05-07T15:33:09.775Z,16.04
2018-05-07T15:35:38.059Z,16.67
2018-05-07T15:38:07.515Z,17.18
2018-05-07T15:40:36.727Z,17.29
2018-05-07T15:43:05.770Z,17.47
2018-05-07T15:45:34.758Z,16.40
2018-05-07T15:48:03.043Z,16.17
2018-05-07T15:50:32.130Z,17.35
2018-05-07T15:53:01.319Z,16.23
2018-05-07T15:55:29.598Z,16.01
2018-05-07T15:57:57.982Z,17.23
2018-05-07T16:00:27.737Z,17.01
2018-05-07T16:02:56.153Z,17.32
2018-05-07T16:05:24.691Z,18.25
2018-05-07T16:07:53.927Z,18.31
2018-05-07T16:10:23.018Z,17.90
2018-05-07T16:12:51.762Z,18.33
2018-05-07T16:15:20.396Z,17.89
2018-05-07T16:17:49.058Z,18.30
2018-05-07T16:20:17.730Z,19.31
2018-05-07T16:22:46.475Z,19.22
2018-05-07T16:25:15.130Z,20.15
2018-05-07T16:27:43.409Z,19.56
2018-05-07T16:30:12.458Z,19.64
2018-05-07T16:32:40.779Z,19.71
2018-05-07T16:35:09.180Z,19.30
2018-05-07T16:37:37.509Z,19.53
2018-05-07T16:40:05.811Z,20.55
2018-05-07T16:42:34.858Z,21.18
2018-05-07T16:45:03.753Z,20.79
2018-05-07T16:47:32.804Z,21.02
2018-05-07T16:50:04.529Z,21.46
2018-05-07T16:52:34.379Z,21.38
2018-05-07T16:55:03.349Z,21.44
2018-05-07T17:00:31.586Z,22.02
2018-05-07T17:03:01.372Z,22.43
2018-05-07T17:05:29.647Z,22.77
2018-05-07T17:07:58.243Z,23.19
2018-05-07T17:10:27.543Z,23.49
2018-05-07T17:12:56.078Z,23.10
2018-05-07T17:15:24.358Z,23.47
2018-05-07T17:17:52.676Z,24.25
2018-05-07T17:20:20.956Z,23.95
2018-05-07T17:22:50.139Z,23.79
2018-05-07T17:25:18.455Z,24.66
2018-05-07T17:27:46.813Z,25.55
2018-05-07T17:30:15.091Z,25.47
2018-05-07T17:32:43.676Z,25.88
2018-05-07T17:35:11.958Z,25.79
2018-05-07T17:37:41.095Z,25.64
2018-05-07T17:40:10.208Z,26.41
2018-05-07T17:42:38.470Z,26.16
2018-05-07T17:58:47.619Z,27.36
2018-05-07T18:01:16.512Z,27.65
2018-05-07T18:03:44.906Z,27.75
2018-05-07T18:06:14.003Z,28.55
2018-05-07T18:08:42.910Z,28.65
2018-05-07T18:11:11.193Z,29.40
2018-05-07T18:13:39.886Z,29.83
2018-05-07T18:16:09.575Z,29.98
2018-05-07T18:18:38.114Z,30.13
2018-05-07T18:21:06.395Z,31.66
2018-05-07T18:23:35.427Z,31.13
2018-05-07T18:26:03.758Z,33.28
2018-05-07T18:28:32.795Z,33.11
2018-05-07T18:31:01.086Z,32.01
2018-05-07T18:33:30.244Z,36.94
2018-05-07T18:35:58.707Z,34.91
2018-05-07T18:38:26.999Z,35.83
2018-05-07T18:40:55.310Z,36.70
2018-05-07T18:43:24.099Z,32.82
2018-05-07T18:45:53.188Z,36.00
2018-05-07T18:48:21.514Z,35.88
2018-05-07T18:50:49.818Z,38.20
2018-05-07T18:53:18.415Z,36.31
2018-05-07T18:55:47.007Z,36.75
2018-05-07T18:58:16.608Z,36.70
2018-05-07T19:00:45.230Z,38.64
2018-05-07T19:03:14.457Z,36.38
2018-05-07T19:05:43.095Z,38.84
2018-05-07T19:08:12.271Z,37.24
2018-05-07T19:10:41.702Z,38.95
2018-05-07T19:13:09.979Z,40.56
2018-05-07T19:15:38.706Z,40.22
2018-05-07T19:18:07.546Z,39.89
2018-05-07T19:20:35.846Z,41.24
2018-05-07T19:23:04.415Z,42.20
2018-05-07T19:25:33.485Z,43.67
2018-05-07T19:28:02.338Z,43.24
2018-05-07T19:30:30.623Z,42.41
2018-05-07T19:32:58.906Z,43.38
2018-05-07T19:35:27.722Z,43.45
2018-05-07T19:37:55.998Z,41.74
2018-05-07T19:40:24.678Z,42.15
2018-05-07T19:42:53.558Z,42.18
2018-05-07T19:45:22.671Z,43.00
2018-05-07T19:47:51.596Z,42.83
2018-05-07T19:50:21.703Z,43.25
2018-05-07T19:52:50.286Z,43.76
2018-05-07T19:55:20.711Z,44.05
2018-05-07T19:57:48.999Z,45.52
2018-05-07T20:00:18.094Z,46.82
2018-05-07T20:02:46.426Z,46.39
2018-05-07T20:05:15.032Z,46.25
2018-05-07T20:07:43.845Z,44.85
2018-05-07T20:10:12.675Z,45.59
2018-05-07T20:12:41.045Z,47.17
2018-05-07T20:15:09.537Z,47.37
2018-05-07T20:17:37.820Z,48.25
2018-05-07T20:20:06.205Z,48.09
2018-05-07T20:22:34.420Z,48.70
2018-05-07T20:25:02.859Z,49.90
2018-05-07T20:27:31.182Z,50.42
2018-05-07T20:29:59.466Z,50.66
2018-05-07T20:32:28.833Z,50.73
2018-05-07T20:34:58.871Z,50.88
2018-05-07T20:37:28.247Z,51.82
2018-05-07T20:39:56.614Z,51.87
2018-05-07T20:42:25.326Z,52.12
2018-05-07T20:44:54.490Z,51.48
2018-05-07T20:47:22.826Z,51.50
2018-05-07T20:49:51.462Z,52.04
2018-05-07T20:52:20.297Z,52.22
2018-05-07T20:54:48.854Z,52.44
2018-05-07T20:57:17.134Z,53.48
2018-05-07T20:59:45.690Z,52.84
2018-05-07T21:02:14.929Z,53.45
2018-05-07T21:04:43.847Z,54.09
2018-05-07T21:07:13.575Z,53.48
2018-05-07T21:09:42.526Z,53.47
2018-05-07T21:12:11.579Z,54.13
2018-05-07T21:14:39.904Z,54.43
2018-05-07T21:17:08.991Z,55.61
2018-05-07T21:19:37.332Z,56.39
2018-05-07T21:22:05.612Z,56.30
2018-05-07T21:24:33.980Z,56.75
2018-05-07T21:27:02.764Z,56.77
2018-05-07T21:29:31.159Z,57.06
2018-05-07T21:32:00.163Z,57.04
2018-05-07T21:34:28.448Z,57.50
2018-05-07T21:36:56.854Z,58.16
2018-05-07T21:39:25.178Z,58.84
2018-05-07T21:41:53.458Z,59.00
2018-05-07T21:44:21.819Z,59.46
2018-05-07T21:46:50.198Z,59.94
2018-05-07T21:49:19.143Z,60.86
2018-05-07T21:51:48.423Z,59.70
2018-05-07T21:54:17.940Z,59.25
2018-05-07T21:56:46.227Z,60.01
2018-05-07T21:59:14.703Z,60.76
2018-05-07T22:01:44.307Z,61.49
2018-05-07T22:04:14.442Z,61.22
2018-05-07T22:06:43.535Z,61.82
2018-05-07T22:09:12.407Z,61.94
2018-05-07T22:11:40.952Z,62.53
2018-05-07T22:14:10.149Z,63.17
2018-05-07T22:16:39.194Z,63.77
2018-05-07T22:19:07.466Z,63.62
2018-05-07T22:21:36.283Z,63.68
2018-05-07T22:24:04.565Z,63.35
2018-05-07T22:26:32.955Z,63.60
2018-05-07T22:29:01.558Z,64.13
2018-05-07T22:31:29.839Z,65.07
2018-05-07T22:33:59.282Z,64.43
2018-05-07T22:36:27.606Z,65.77
2018-05-07T22:38:56.322Z,64.94
2018-05-07T22:41:24.594Z,65.12
2018-05-07T22:43:52.891Z,65.51
2018-05-07T22:46:21.225Z,65.41
2018-05-07T22:48:49.493Z,65.83
2018-05-07T22:51:18.346Z,66.74
2018-05-07T22:53:46.643Z,66.50
2018-05-07T22:56:14.922Z,66.85
2018-05-07T22:58:43.222Z,67.92
2018-05-07T23:01:11.791Z,67.46
2018-05-07T23:03:40.068Z,67.04
2018-05-07T23:06:09.535Z,66.76
2018-05-07T23:08:37.810Z,67.12
2018-05-07T23:11:06.322Z,67.26
2018-05-07T23:13:34.603Z,67.58
2018-05-07T23:16:03.931Z,67.63
2018-05-07T23:18:32.215Z,68.47
2018-05-07T23:21:00.501Z,68.29
2018-05-07T23:23:28.778Z,68.50
2018-05-07T23:25:57.270Z,68.72
2018-05-07T23:28:25.542Z,69.15
2018-05-07T23:30:54.469Z,69.43
2018-05-07T23:33:22.887Z,69.67
2018-05-07T23:35:51.166Z,70.36
2018-05-07T23:38:20.134Z,69.64
2018-05-07T23:40:48.475Z,70.40
2018-05-07T23:43:17.426Z,70.67
2018-05-07T23:45:45.706Z,70.98
2018-05-07T23:48:14.010Z,71.47
2018-05-07T23:50:42.322Z,72.18
2018-05-07T23:53:11.119Z,72.97
2018-05-07T23:55:39.438Z,73.52
2018-05-07T23:58:07.755Z,73.31
